createdAt,value
2023-03-31T00:03:45.543Z,13.56
2023-03-31T00:08:54.311Z,13.61
2023-03-31T00:14:01.829Z,13.64
2023-03-31T00:19:10.779Z,13.60
2023-03-31T00:24:19.754Z,13.65
2023-03-31T00:29:28.230Z,13.68
2023-03-31T00:34:37.671Z,13.71
2023-03-31T00:39:45.447Z,13.73
2023-03-31T00:45:27.609Z,13.74
2023-03-31T00:50:37.139Z,13.72
2023-03-31T00:55:48.756Z,13.77
2023-03-31T01:00:59.600Z,13.80
2023-03-31T01:06:11.439Z,13.82
2023-03-31T01:11:22.253Z,13.82
2023-03-31T01:16:30.420Z,13.81
2023-03-31T01:22:20.099Z,13.81
2023-03-31T01:27:54.473Z,13.85
2023-03-31T01:33:27.048Z,13.88
2023-03-31T01:39:12.466Z,13.91
2023-03-31T01:44:32.091Z,13.99
2023-03-31T01:49:49.005Z,14.17
2023-03-31T01:55:02.579Z,14.22
2023-03-31T02:00:16.130Z,14.32
2023-03-31T02:05:27.681Z,14.39
2023-03-31T02:10:37.252Z,14.44
2023-03-31T02:15:49.687Z,14.48
2023-03-31T02:20:59.979Z,14.52
2023-03-31T02:26:11.904Z,14.55
2023-03-31T02:31:29.251Z,14.57
2023-03-31T02:36:38.607Z,14.57
2023-03-31T02:41:48.311Z,14.56
2023-03-31T02:46:56.996Z,14.56
2023-03-31T02:52:25.883Z,14.53
2023-03-31T02:58:07.801Z,14.51
2023-03-31T03:03:32.557Z,14.48
2023-03-31T03:09:02.738Z,14.48
2023-03-31T03:14:19.394Z,14.48
2023-03-31T03:19:28.229Z,14.47
2023-03-31T03:24:37.109Z,14.44
2023-03-31T03:29:45.705Z,14.42
2023-03-31T03:34:53.971Z,14.43
2023-03-31T03:40:02.450Z,14.42
2023-03-31T03:45:12.202Z,14.42
2023-03-31T03:50:20.753Z,14.41
2023-03-31T03:55:29.470Z,14.39
2023-03-31T04:00:37.810Z,14.38
2023-03-31T04:05:46.017Z,14.37
2023-03-31T04:10:54.601Z,14.37
2023-03-31T04:16:03.074Z,14.36
2023-03-31T04:21:12.678Z,14.36
2023-03-31T04:26:27.351Z,14.34
2023-03-31T04:31:40.319Z,14.33
2023-03-31T04:36:49.868Z,14.33
2023-03-31T04:41:58.791Z,14.32
2023-03-31T04:47:07.428Z,14.32
2023-03-31T04:52:14.847Z,14.34
2023-03-31T04:57:23.347Z,14.34
2023-03-31T05:02:31.640Z,14.33
2023-03-31T05:07:39.117Z,14.33
2023-03-31T05:12:46.812Z,14.34
2023-03-31T05:17:55.415Z,14.35
2023-03-31T05:23:03.806Z,14.36
2023-03-31T05:28:11.732Z,14.36
2023-03-31T05:33:20.074Z,14.37
2023-03-31T05:38:31.933Z,14.39
2023-03-31T05:43:41.140Z,14.39
2023-03-31T05:48:49.682Z,14.41
2023-03-31T05:53:57.010Z,14.42
2023-03-31T05:59:05.609Z,14.44
2023-03-31T06:04:13.818Z,14.46
2023-03-31T06:09:22.708Z,14.49
2023-03-31T06:14:31.532Z,14.52
2023-03-31T06:19:40.576Z,14.56
2023-03-31T06:24:53.990Z,14.60
2023-03-31T06:30:02.838Z,14.65
2023-03-31T06:35:11.385Z,14.68
2023-03-31T06:40:19.509Z,14.72
2023-03-31T06:45:26.738Z,14.73
2023-03-31T06:50:35.491Z,14.74
2023-03-31T06:55:42.809Z,14.75
2023-03-31T07:00:53.160Z,14.76
2023-03-31T07:06:00.419Z,14.78
2023-03-31T07:11:07.820Z,14.79
2023-03-31T07:16:15.516Z,14.80
2023-03-31T07:21:24.251Z,14.82
2023-03-31T07:26:32.822Z,14.83
2023-03-31T07:31:41.252Z,14.85
2023-03-31T07:36:49.630Z,14.88
2023-03-31T07:41:57.866Z,14.91
2023-03-31T07:47:06.637Z,14.97
2023-03-31T07:52:15.076Z,15.04
2023-03-31T07:57:23.564Z,15.11
2023-03-31T08:02:32.341Z,15.18
2023-03-31T08:07:43.180Z,15.24
2023-03-31T08:12:52.069Z,15.29
2023-03-31T08:18:00.336Z,15.33
2023-03-31T08:23:11.908Z,15.36
2023-03-31T08:28:20.259Z,15.37
2023-03-31T08:33:28.835Z,15.38
2023-03-31T08:38:38.053Z,15.39
2023-03-31T08:43:51.166Z,15.39
2023-03-31T08:49:01.608Z,15.38
2023-03-31T08:54:16.344Z,15.40
2023-03-31T08:59:31.766Z,15.41
2023-03-31T09:05:13.334Z,15.43
2023-03-31T09:10:50.018Z,15.46
2023-03-31T09:16:04.607Z,15.51
2023-03-31T09:21:19.243Z,15.55
2023-03-31T09:26:34.371Z,15.59
2023-03-31T09:31:44.494Z,15.64
2023-03-31T09:36:52.876Z,15.69
2023-03-31T09:42:01.821Z,15.73
2023-03-31T09:47:15.362Z,15.76
2023-03-31T09:52:31.392Z,15.82
2023-03-31T09:57:43.828Z,15.90
2023-03-31T10:02:55.553Z,15.97
2023-03-31T10:08:29.930Z,16.06
2023-03-31T10:13:46.455Z,16.15
2023-03-31T10:18:54.184Z,16.25
2023-03-31T10:24:10.078Z,16.34
2023-03-31T10:29:26.220Z,16.41
2023-03-31T10:34:44.651Z,16.48
2023-03-31T10:39:58.641Z,16.15
2023-03-31T10:45:36.388Z,15.30
2023-03-31T10:50:48.077Z,14.95
2023-03-31T10:56:09.144Z,15.05
2023-03-31T11:01:32.756Z,15.06
2023-03-31T11:06:51.887Z,15.04
2023-03-31T11:12:08.852Z,15.03
2023-03-31T11:17:33.994Z,15.06
2023-03-31T11:22:54.603Z,15.08
2023-03-31T11:28:36.266Z,15.09
2023-03-31T11:34:03.002Z,15.13
2023-03-31T11:39:35.609Z,15.16
2023-03-31T11:44:54.077Z,15.19
2023-03-31T11:50:06.968Z,15.19
2023-03-31T11:55:22.099Z,15.18
2023-03-31T12:00:34.556Z,15.16
2023-03-31T12:05:48.181Z,15.14
2023-03-31T12:11:03.159Z,15.11
2023-03-31T12:16:17.263Z,15.10
2023-03-31T12:21:27.311Z,15.11
2023-03-31T12:26:48.673Z,15.13
2023-03-31T12:31:59.360Z,15.16
2023-03-31T12:37:34.517Z,15.18
2023-03-31T12:43:30.579Z,15.17
2023-03-31T12:49:01.179Z,15.17
2023-03-31T12:54:34.223Z,15.19
2023-03-31T12:59:43.647Z,15.23
2023-03-31T13:04:53.914Z,15.29
2023-03-31T13:10:24.023Z,15.35
2023-03-31T13:15:33.330Z,15.41
2023-03-31T13:20:43.589Z,15.46
2023-03-31T13:25:54.826Z,15.51
2023-03-31T13:31:04.590Z,15.53
2023-03-31T13:36:51.436Z,15.55
2023-03-31T13:42:14.812Z,15.57
2023-03-31T13:47:46.183Z,15.61
2023-03-31T13:53:04.477Z,15.65
2023-03-31T13:58:46.831Z,15.68
2023-03-31T14:04:07.076Z,15.72
2023-03-31T14:09:24.501Z,15.74
2023-03-31T14:14:32.601Z,15.76
2023-03-31T14:20:06.717Z,15.78
2023-03-31T14:25:29.296Z,15.80
2023-03-31T14:30:48.622Z,15.82
2023-03-31T14:36:02.392Z,15.83
2023-03-31T14:41:17.973Z,15.85
2023-03-31T14:46:26.472Z,15.85
2023-03-31T14:51:35.556Z,15.85
2023-03-31T14:56:45.684Z,15.86
2023-03-31T15:01:54.631Z,15.88
2023-03-31T15:07:06.526Z,15.90
2023-03-31T15:12:15.338Z,15.94
2023-03-31T15:17:25.983Z,15.95
2023-03-31T15:22:34.339Z,15.98
2023-03-31T15:27:47.521Z,16.00
2023-03-31T15:38:30.377Z,16.01
2023-03-31T15:43:51.058Z,16.03
2023-03-31T15:48:59.729Z,16.01
2023-03-31T15:54:37.942Z,15.60
2023-03-31T15:59:56.986Z,15.22
2023-03-31T16:05:53.401Z,14.95
2023-03-31T16:11:07.759Z,14.72
2023-03-31T16:16:19.098Z,14.70
2023-03-31T16:21:30.967Z,14.98
2023-03-31T16:26:40.160Z,15.11
2023-03-31T16:31:48.577Z,15.16
2023-03-31T16:36:56.818Z,15.19
2023-03-31T16:42:05.661Z,15.20
2023-03-31T16:47:20.493Z,15.19
2023-03-31T16:52:37.834Z,15.15
2023-03-31T16:57:46.014Z,15.11
2023-03-31T17:02:54.390Z,15.04
2023-03-31T17:08:03.427Z,14.97
2023-03-31T17:13:11.463Z,14.89
2023-03-31T17:18:22.870Z,14.81
2023-03-31T17:23:31.198Z,14.55
2023-03-31T17:28:40.004Z,14.00
2023-03-31T17:33:48.006Z,13.60
2023-03-31T17:38:56.722Z,13.25
2023-03-31T17:44:08.493Z,12.96
2023-03-31T17:49:18.849Z,12.66
2023-03-31T17:54:27.364Z,12.57
2023-03-31T17:59:37.619Z,12.73
2023-03-31T18:04:47.341Z,12.69
2023-03-31T18:09:54.987Z,12.69
2023-03-31T18:15:04.368Z,12.73
2023-03-31T18:20:14.867Z,12.75
2023-03-31T18:25:22.605Z,12.75
2023-03-31T18:30:30.304Z,12.74
2023-03-31T18:35:38.825Z,12.74
2023-03-31T18:40:53.717Z,12.73
2023-03-31T18:46:01.843Z,12.72
2023-03-31T18:51:09.956Z,12.69
2023-03-31T18:56:18.723Z,12.67
2023-03-31T19:01:27.622Z,12.63
2023-03-31T19:06:36.026Z,12.60
2023-03-31T19:11:43.512Z,12.56
2023-03-31T19:16:51.957Z,12.52
2023-03-31T19:22:01.129Z,12.48
2023-03-31T19:27:09.819Z,12.44
2023-03-31T19:32:18.403Z,12.39
2023-03-31T19:37:27.688Z,12.36
2023-03-31T19:42:37.664Z,12.32
2023-03-31T19:47:45.104Z,12.28
2023-03-31T19:52:54.050Z,12.22
2023-03-31T19:58:02.490Z,12.19
2023-03-31T20:03:10.987Z,12.16
2023-03-31T20:08:20.043Z,12.15
2023-03-31T20:13:28.727Z,12.12
2023-03-31T20:18:37.026Z,12.09
2023-03-31T20:23:46.935Z,12.06
2023-03-31T20:28:56.624Z,12.03
2023-03-31T20:34:03.982Z,11.99
2023-03-31T20:39:12.939Z,11.94
2023-03-31T20:44:20.272Z,11.89
2023-03-31T20:49:28.832Z,11.84
2023-03-31T20:54:38.027Z,11.79
2023-03-31T20:59:46.828Z,11.75
2023-03-31T21:04:55.091Z,11.69
2023-03-31T21:10:03.563Z,11.65
2023-03-31T21:15:14.137Z,11.61
2023-03-31T21:20:22.816Z,11.56
2023-03-31T21:25:33.128Z,11.51
2023-03-31T21:30:40.627Z,11.45
2023-03-31T21:35:49.327Z,11.39
2023-03-31T21:40:57.917Z,11.32
2023-03-31T21:46:05.377Z,11.26
2023-03-31T21:51:13.905Z,11.22
2023-03-31T21:56:23.385Z,11.18
2023-03-31T22:01:32.896Z,11.15
2023-03-31T22:06:41.306Z,11.12
2023-03-31T22:11:49.956Z,11.10
2023-03-31T22:16:58.487Z,11.09
2023-03-31T22:22:07.060Z,11.08
2023-03-31T22:27:14.615Z,11.08
2023-03-31T22:32:23.829Z,11.06
2023-03-31T22:37:32.615Z,11.05
2023-03-31T22:42:40.278Z,11.04
2023-03-31T22:47:47.891Z,11.02
2023-03-31T22:52:57.075Z,11.00
2023-03-31T22:58:05.523Z,10.99
2023-03-31T23:03:12.854Z,10.97
2023-03-31T23:08:20.481Z,10.95
2023-03-31T23:13:29.821Z,10.93
2023-03-31T23:18:40.478Z,10.91
2023-03-31T23:23:50.799Z,10.88
2023-03-31T23:28:59.969Z,10.86
2023-03-31T23:34:10.459Z,10.81
2023-03-31T23:39:18.733Z,10.78
2023-03-31T23:44:27.535Z,10.75
2023-03-31T23:49:36.050Z,10.73
2023-03-31T23:54:44.282Z,10.70
2023-03-31T23:59:53.041Z,10.69
